createdAt,value
2023-05-15T00:01:42.920Z,5.57
2023-05-15T00:04:45.937Z,6.10
2023-05-15T00:07:49.915Z,6.10
2023-05-15T00:11:00.934Z,6.00
2023-05-15T00:14:05.570Z,5.80
2023-05-15T00:17:14.572Z,5.80
2023-05-15T00:20:17.196Z,6.30
2023-05-15T00:23:23.371Z,6.47
2023-05-15T00:26:26.186Z,5.70
2023-05-15T00:29:29.067Z,6.03
2023-05-15T00:32:31.785Z,5.63
2023-05-15T00:35:37.508Z,6.00
2023-05-15T00:38:41.882Z,7.20
2023-05-15T00:41:46.143Z,7.03
2023-05-15T00:44:49.914Z,6.87
2023-05-15T00:47:54.160Z,6.90
2023-05-15T00:50:58.348Z,6.67
2023-05-15T00:54:03.400Z,6.40
2023-05-15T00:57:09.631Z,7.03
2023-05-15T01:00:16.761Z,6.33
2023-05-15T01:03:19.977Z,7.13
2023-05-15T01:06:22.988Z,6.93
2023-05-15T01:09:31.508Z,6.43
2023-05-15T01:12:36.971Z,6.80
2023-05-15T01:15:39.693Z,6.50
2023-05-15T01:18:44.791Z,6.27
2023-05-15T01:22:16.640Z,6.30
2023-05-15T01:25:57.524Z,6.70
2023-05-15T01:29:06.511Z,6.23
2023-05-15T01:32:12.999Z,6.03
2023-05-15T01:35:22.403Z,6.60
2023-05-15T01:38:31.662Z,6.63
2023-05-15T01:41:42.580Z,6.67
2023-05-15T01:44:54.617Z,6.07
2023-05-15T01:47:58.884Z,6.87
2023-05-15T01:51:04.495Z,6.70
2023-05-15T01:54:09.252Z,6.80
2023-05-15T01:57:13.019Z,7.07
2023-05-15T02:00:18.786Z,7.57
2023-05-15T02:03:21.845Z,8.10
2023-05-15T02:06:26.174Z,7.40
2023-05-15T02:09:29.782Z,7.10
2023-05-15T02:12:33.876Z,7.07
2023-05-15T02:15:38.888Z,6.60
2023-05-15T02:18:44.863Z,6.57
2023-05-15T02:21:47.588Z,6.97
2023-05-15T02:24:50.265Z,6.90
2023-05-15T02:27:58.576Z,7.60
2023-05-15T02:31:09.252Z,7.57
2023-05-15T02:34:22.757Z,6.90
2023-05-15T02:37:29.751Z,7.23
2023-05-15T02:40:34.313Z,7.47
2023-05-15T02:43:37.594Z,7.40
2023-05-15T02:46:42.701Z,7.43
2023-05-15T02:49:46.268Z,7.70
2023-05-15T02:52:48.996Z,7.30
2023-05-15T02:55:52.045Z,7.53
2023-05-15T02:58:55.111Z,8.13
2023-05-15T03:02:00.039Z,7.93
2023-05-15T03:05:08.648Z,9.07
2023-05-15T03:08:11.356Z,8.23
2023-05-15T03:11:14.383Z,9.50
2023-05-15T03:14:19.703Z,9.60
2023-05-15T03:17:23.732Z,9.13
2023-05-15T03:20:26.432Z,11.87
2023-05-15T03:23:29.121Z,15.30
2023-05-15T03:26:31.787Z,15.77
2023-05-15T03:29:40.647Z,14.53
2023-05-15T03:32:44.823Z,12.83
2023-05-15T03:35:51.216Z,11.60
2023-05-15T03:38:53.903Z,10.93
2023-05-15T03:41:56.585Z,10.13
2023-05-15T03:44:59.329Z,11.10
2023-05-15T03:48:03.717Z,10.17
2023-05-15T03:51:06.559Z,9.80
2023-05-15T03:54:09.888Z,9.03
2023-05-15T03:57:13.541Z,9.47
2023-05-15T04:00:18.470Z,10.03
2023-05-15T04:03:24.306Z,10.87
2023-05-15T04:06:27.234Z,10.80
2023-05-15T04:09:29.991Z,11.53
2023-05-15T04:12:35.819Z,10.53
2023-05-15T04:15:38.548Z,9.20
2023-05-15T04:18:42.719Z,9.47
2023-05-15T04:21:45.652Z,9.37
2023-05-15T04:24:48.344Z,8.53
2023-05-15T04:27:51.094Z,8.97
2023-05-15T04:30:53.743Z,7.80
2023-05-15T04:33:57.748Z,7.57
2023-05-15T04:37:02.088Z,7.87
2023-05-15T04:40:06.513Z,8.10
2023-05-15T04:43:09.335Z,7.90
2023-05-15T04:46:12.105Z,7.47
2023-05-15T04:49:16.609Z,7.83
2023-05-15T04:52:19.451Z,6.47
2023-05-15T04:55:22.348Z,5.93
2023-05-15T04:58:25.471Z,6.53
2023-05-15T05:01:28.196Z,5.67
2023-05-15T05:04:32.253Z,6.40
2023-05-15T05:07:35.636Z,6.23
2023-05-15T05:10:38.340Z,5.73
2023-05-15T05:13:41.990Z,6.10
2023-05-15T05:16:45.683Z,5.87
2023-05-15T05:19:49.736Z,4.70
2023-05-15T05:22:52.500Z,4.40
2023-05-15T05:25:55.204Z,4.93
2023-05-15T05:28:57.946Z,4.37
2023-05-15T05:32:01.411Z,4.80
2023-05-15T05:35:06.446Z,4.53
2023-05-15T05:38:09.212Z,4.20
2023-05-15T05:41:11.918Z,4.60
2023-05-15T05:44:14.621Z,4.40
2023-05-15T05:47:17.486Z,4.70
2023-05-15T05:50:21.695Z,4.97
2023-05-15T05:53:24.381Z,5.13
2023-05-15T05:56:27.303Z,5.47
2023-05-15T05:59:30.091Z,5.63
2023-05-15T06:02:32.846Z,5.13
2023-05-15T06:05:37.191Z,4.97
2023-05-15T06:08:40.052Z,4.63
2023-05-15T06:11:42.772Z,5.20
2023-05-15T06:14:45.477Z,4.90
2023-05-15T06:17:51.140Z,4.50
2023-05-15T06:20:55.228Z,4.73
2023-05-15T06:23:57.887Z,4.80
2023-05-15T06:27:01.090Z,4.70
2023-05-15T06:30:10.707Z,4.30
2023-05-15T06:33:13.485Z,4.80
2023-05-15T06:36:17.580Z,4.97
2023-05-15T06:39:20.235Z,4.90
2023-05-15T06:42:23.132Z,4.60
2023-05-15T06:45:27.407Z,4.50
2023-05-15T06:48:30.526Z,5.00
2023-05-15T06:51:34.577Z,5.70
2023-05-15T06:54:37.575Z,5.67
2023-05-15T06:57:40.449Z,5.20
2023-05-15T07:00:43.232Z,5.47
2023-05-15T07:03:45.897Z,5.30
2023-05-15T07:06:50.362Z,5.13
2023-05-15T07:09:53.055Z,4.83
2023-05-15T07:12:55.787Z,4.50
2023-05-15T07:15:58.511Z,5.03
2023-05-15T07:19:01.727Z,5.27
2023-05-15T07:22:06.225Z,4.87
2023-05-15T07:25:11.852Z,4.50
2023-05-15T07:28:14.619Z,4.77
2023-05-15T07:31:17.351Z,4.80
2023-05-15T07:34:20.200Z,4.50
2023-05-15T07:37:24.852Z,4.47
2023-05-15T07:40:27.704Z,4.90
2023-05-15T07:43:30.432Z,4.43
2023-05-15T07:46:33.265Z,4.27
2023-05-15T07:49:38.133Z,4.33
2023-05-15T07:52:45.252Z,4.53
2023-05-15T07:55:47.928Z,4.03
2023-05-15T07:58:50.702Z,4.40
2023-05-15T08:01:53.976Z,4.37
2023-05-15T08:04:56.662Z,4.90
2023-05-15T08:08:02.244Z,4.97
2023-05-15T08:11:09.900Z,4.60
2023-05-15T08:14:13.960Z,4.23
2023-05-15T08:17:17.041Z,4.63
2023-05-15T08:20:20.917Z,4.60
2023-05-15T08:23:25.122Z,4.20
2023-05-15T08:26:27.816Z,4.47
2023-05-15T08:29:30.523Z,4.23
2023-05-15T08:32:35.179Z,4.30
2023-05-15T08:35:41.223Z,4.40
2023-05-15T08:38:45.323Z,4.80
2023-05-15T08:41:54.398Z,4.37
2023-05-15T08:44:57.459Z,4.50
2023-05-15T08:48:03.282Z,4.90
2023-05-15T08:51:10.198Z,4.30
2023-05-15T08:54:14.412Z,4.50
2023-05-15T08:57:18.636Z,4.30
2023-05-15T09:00:22.996Z,4.80
2023-05-15T09:03:25.988Z,4.70
2023-05-15T09:06:29.256Z,4.47
2023-05-15T09:09:35.312Z,4.33
2023-05-15T09:12:43.046Z,3.87
2023-05-15T09:15:46.717Z,4.00
2023-05-15T09:18:50.911Z,4.30
2023-05-15T09:21:53.699Z,3.60
2023-05-15T09:24:58.204Z,3.90
2023-05-15T09:28:01.046Z,3.37
2023-05-15T09:31:05.665Z,3.30
2023-05-15T09:34:10.212Z,3.27
2023-05-15T09:37:29.423Z,3.20
2023-05-15T09:40:33.556Z,3.17
2023-05-15T09:43:38.825Z,3.20
2023-05-15T09:46:41.651Z,3.07
2023-05-15T09:49:45.684Z,3.30
2023-05-15T09:52:48.542Z,3.70
2023-05-15T09:55:54.056Z,3.30
2023-05-15T09:58:58.240Z,3.23
2023-05-15T10:02:00.985Z,2.17
2023-05-15T10:05:04.506Z,3.00
2023-05-15T10:08:10.225Z,3.33
2023-05-15T10:11:14.486Z,2.97
2023-05-15T10:14:19.547Z,3.60
2023-05-15T10:17:22.338Z,3.30
2023-05-15T10:20:26.978Z,3.27
2023-05-15T10:23:32.242Z,3.53
2023-05-15T10:26:41.465Z,3.33
2023-05-15T10:29:45.154Z,3.70
2023-05-15T10:32:49.970Z,3.43
2023-05-15T10:35:53.150Z,3.30
2023-05-15T10:38:55.968Z,3.10
2023-05-15T10:42:01.187Z,3.50
2023-05-15T10:45:09.900Z,3.13
2023-05-15T10:48:13.529Z,3.30
2023-05-15T10:51:17.436Z,3.40
2023-05-15T10:54:20.399Z,3.37
2023-05-15T10:57:24.703Z,3.40
2023-05-15T11:00:29.270Z,3.40
2023-05-15T11:03:48.890Z,3.03
2023-05-15T11:07:13.050Z,3.50
2023-05-15T11:10:37.657Z,3.80
2023-05-15T11:14:14.403Z,3.40
2023-05-15T11:17:17.695Z,3.47
2023-05-15T11:20:20.503Z,3.30
2023-05-15T11:23:24.715Z,3.40
2023-05-15T11:26:34.059Z,3.27
2023-05-15T11:29:38.111Z,3.97
2023-05-15T11:32:56.371Z,3.57
2023-05-15T11:36:01.165Z,3.60
2023-05-15T11:39:11.241Z,3.33
2023-05-15T11:42:14.892Z,3.57
2023-05-15T11:45:19.156Z,3.33
2023-05-15T11:48:24.822Z,3.20
2023-05-15T11:51:30.147Z,3.37
2023-05-15T11:54:33.466Z,3.40
2023-05-15T11:57:39.218Z,3.40
2023-05-15T12:00:44.508Z,3.80
2023-05-15T12:03:49.113Z,3.37
2023-05-15T12:06:52.565Z,3.37
2023-05-15T12:09:55.757Z,3.60
2023-05-15T12:12:59.778Z,3.03
2023-05-15T12:16:05.213Z,3.40
2023-05-15T12:19:08.266Z,3.40
2023-05-15T12:22:11.207Z,3.40
2023-05-15T12:25:17.759Z,3.70
2023-05-15T12:28:20.681Z,3.20
2023-05-15T12:31:24.988Z,2.87
2023-05-15T12:34:27.929Z,2.87
2023-05-15T12:37:33.621Z,3.20
2023-05-15T12:40:37.812Z,3.20
2023-05-15T12:43:41.244Z,2.83
2023-05-15T12:46:46.257Z,2.97
2023-05-15T12:49:48.994Z,2.90
2023-05-15T12:52:53.220Z,2.90
2023-05-15T12:55:55.993Z,2.70
2023-05-15T12:58:59.222Z,2.60
2023-05-15T13:02:03.425Z,2.50
2023-05-15T13:05:07.210Z,2.23
2023-05-15T13:08:10.109Z,2.33
2023-05-15T13:11:14.617Z,2.30
2023-05-15T13:14:19.532Z,2.20
2023-05-15T13:17:23.615Z,2.17
2023-05-15T13:20:26.676Z,2.27
2023-05-15T13:23:29.668Z,2.30
2023-05-15T13:26:32.492Z,2.40
2023-05-15T13:29:35.676Z,2.40
2023-05-15T13:32:39.849Z,2.80
2023-05-15T13:35:43.257Z,2.80
2023-05-15T13:39:06.584Z,2.83
2023-05-15T13:42:09.369Z,3.10
2023-05-15T13:45:14.544Z,2.53
2023-05-15T13:48:19.736Z,2.90
2023-05-15T13:51:22.497Z,1.67
2023-05-15T13:54:25.359Z,2.43
2023-05-15T13:57:28.042Z,2.20
2023-05-15T14:00:30.785Z,1.90
2023-05-15T14:03:35.138Z,2.67
2023-05-15T14:06:38.188Z,3.10
2023-05-15T14:09:41.151Z,2.93
2023-05-15T14:12:44.224Z,3.67
2023-05-15T14:15:47.126Z,4.10
2023-05-15T14:18:51.138Z,4.40
2023-05-15T14:21:54.005Z,3.40
2023-05-15T14:24:56.845Z,3.60
2023-05-15T14:27:59.783Z,3.50
2023-05-15T14:31:02.546Z,4.07
2023-05-15T14:34:07.037Z,4.00
2023-05-15T14:37:09.989Z,4.17
2023-05-15T14:40:13.618Z,4.13
2023-05-15T14:43:16.625Z,4.40
2023-05-15T14:46:20.368Z,4.60
2023-05-15T14:49:25.394Z,4.13
2023-05-15T14:52:29.146Z,4.57
2023-05-15T14:55:34.176Z,4.40
2023-05-15T14:58:37.588Z,4.40
2023-05-15T15:01:40.720Z,4.00
2023-05-15T15:04:45.075Z,3.90
2023-05-15T15:08:02.657Z,3.70
2023-05-15T15:11:06.552Z,3.80
2023-05-15T15:14:09.678Z,3.30
2023-05-15T15:17:12.883Z,3.60
2023-05-15T15:20:27.002Z,3.23
2023-05-15T15:23:32.472Z,3.47
2023-05-15T15:26:35.538Z,3.30
2023-05-15T15:29:38.453Z,3.30
2023-05-15T15:32:42.381Z,3.40
2023-05-15T15:35:48.255Z,3.53
2023-05-15T15:38:51.303Z,2.93
2023-05-15T15:41:54.556Z,3.40
2023-05-15T15:44:59.443Z,3.70
2023-05-15T15:48:02.380Z,3.30
2023-05-15T15:51:07.195Z,3.97
2023-05-15T15:54:10.540Z,3.60
2023-05-15T16:01:06.400Z,3.63
2023-05-15T16:04:45.195Z,3.30
2023-05-15T16:08:17.759Z,3.43
2023-05-15T16:11:44.190Z,3.90
2023-05-15T16:15:21.050Z,4.10
2023-05-15T16:18:55.377Z,4.70
2023-05-15T16:22:03.602Z,4.30
2023-05-15T16:25:45.391Z,4.40
2023-05-15T16:28:56.956Z,4.43
2023-05-15T16:32:12.943Z,4.53
2023-05-15T16:35:41.808Z,4.20
2023-05-15T16:39:31.483Z,4.30
2023-05-15T16:42:52.719Z,4.17
2023-05-15T16:45:55.589Z,4.23
2023-05-15T16:48:58.282Z,3.80
2023-05-15T16:52:01.332Z,4.10
2023-05-15T16:55:04.452Z,3.63
2023-05-15T16:58:08.629Z,4.07
2023-05-15T17:01:11.448Z,3.97
2023-05-15T17:04:14.162Z,3.77
2023-05-15T17:07:16.835Z,3.73
2023-05-15T17:10:19.703Z,4.40
2023-05-15T17:13:25.110Z,3.50
2023-05-15T17:16:29.364Z,3.90
2023-05-15T17:19:34.295Z,3.40
2023-05-15T17:22:37.183Z,3.53
2023-05-15T17:25:39.840Z,4.07
2023-05-15T17:28:43.837Z,4.10
2023-05-15T17:31:47.280Z,3.50
2023-05-15T17:34:51.481Z,2.67
2023-05-15T17:37:54.217Z,4.30
2023-05-15T17:40:56.922Z,4.17
2023-05-15T17:44:01.028Z,3.80
2023-05-15T17:47:03.772Z,4.40
2023-05-15T17:50:07.709Z,3.53
2023-05-15T17:53:10.454Z,3.50
2023-05-15T17:56:13.334Z,3.63
2023-05-15T17:59:17.549Z,3.83
2023-05-15T18:02:20.271Z,3.30
2023-05-15T18:05:23.842Z,3.63
2023-05-15T18:08:27.307Z,3.43
2023-05-15T18:11:30.090Z,4.47
2023-05-15T18:14:34.284Z,3.80
2023-05-15T18:17:37.098Z,3.97
2023-05-15T18:20:39.865Z,3.70
2023-05-15T18:23:42.781Z,3.47
2023-05-15T18:26:45.557Z,3.90
2023-05-15T18:29:49.767Z,3.80
2023-05-15T18:32:52.594Z,3.90
2023-05-15T18:35:55.668Z,3.70
2023-05-15T18:38:58.410Z,3.60
2023-05-15T18:42:01.262Z,3.40
2023-05-15T18:45:06.155Z,3.73
2023-05-15T18:48:09.166Z,3.50
2023-05-15T18:51:12.076Z,3.57
2023-05-15T18:54:14.884Z,3.70
2023-05-15T18:57:17.739Z,3.60
2023-05-15T19:00:34.033Z,3.53
2023-05-15T19:03:41.050Z,3.53
2023-05-15T19:06:44.275Z,4.00
2023-05-15T19:09:47.001Z,3.70
2023-05-15T19:12:49.721Z,4.00
2023-05-15T19:15:56.769Z,4.47
2023-05-15T19:19:00.268Z,3.70
2023-05-15T19:22:03.480Z,4.63
2023-05-15T19:25:07.198Z,4.40
2023-05-15T19:28:12.213Z,4.53
2023-05-15T19:31:27.892Z,4.27
2023-05-15T19:34:33.888Z,4.60
2023-05-15T19:37:36.639Z,4.33
2023-05-15T19:40:46.827Z,4.10
2023-05-15T19:43:50.928Z,4.50
2023-05-15T19:46:55.269Z,4.27
2023-05-15T19:49:58.004Z,4.33
2023-05-15T19:53:01.004Z,4.97
2023-05-15T19:56:03.983Z,4.60
2023-05-15T19:59:06.765Z,4.83
2023-05-15T20:02:11.252Z,5.00
2023-05-15T20:05:14.837Z,5.40
2023-05-15T20:08:17.676Z,5.50
2023-05-15T20:11:21.154Z,5.03
2023-05-15T20:14:24.040Z,5.10
2023-05-15T20:17:28.934Z,5.80
2023-05-15T20:20:31.876Z,5.30
2023-05-15T20:23:34.716Z,5.53
2023-05-15T20:26:37.580Z,5.77
2023-05-15T20:29:43.564Z,5.80
2023-05-15T20:32:47.678Z,7.87
2023-05-15T20:35:51.464Z,6.10
2023-05-15T20:38:55.076Z,5.97
2023-05-15T20:41:57.791Z,5.90
2023-05-15T20:45:00.473Z,5.70
2023-05-15T20:48:06.911Z,5.80
2023-05-15T20:51:09.576Z,5.93
2023-05-15T20:54:12.269Z,6.93
2023-05-15T20:57:15.097Z,7.30
2023-05-15T21:00:18.938Z,7.20
2023-05-15T21:03:23.027Z,6.43
2023-05-15T21:06:25.977Z,6.87
2023-05-15T21:09:28.932Z,6.90
2023-05-15T21:12:32.473Z,7.43
2023-05-15T21:15:35.147Z,7.60
2023-05-15T21:18:39.507Z,7.40
2023-05-15T21:21:42.158Z,7.10
2023-05-15T21:24:45.111Z,7.00
2023-05-15T21:27:47.811Z,7.00
2023-05-15T21:30:50.557Z,8.50
2023-05-15T21:33:55.903Z,7.87
2023-05-15T21:36:58.649Z,7.53
2023-05-15T21:40:01.786Z,8.20
2023-05-15T21:43:04.939Z,8.60
2023-05-15T21:46:07.862Z,7.90
2023-05-15T21:49:12.352Z,8.17
2023-05-15T21:52:15.436Z,8.37
2023-05-15T21:55:18.500Z,8.37
2023-05-15T21:58:23.760Z,9.00
2023-05-15T22:01:26.502Z,8.23
2023-05-15T22:04:30.701Z,7.67
2023-05-15T22:07:33.613Z,8.07
2023-05-15T22:10:36.489Z,7.70
2023-05-15T22:13:39.152Z,7.77
2023-05-15T22:16:42.821Z,8.13
2023-05-15T22:19:47.263Z,7.87
2023-05-15T22:22:50.060Z,8.47
2023-05-15T22:25:57.977Z,9.37
2023-05-15T22:29:00.696Z,8.00
2023-05-15T22:32:03.814Z,8.53
2023-05-15T22:35:09.671Z,8.27
2023-05-15T22:38:12.438Z,8.23
2023-05-15T22:41:18.312Z,8.57
2023-05-15T22:44:21.041Z,10.10
2023-05-15T22:47:23.828Z,11.53
2023-05-15T22:50:31.616Z,10.70
2023-05-15T22:53:34.644Z,11.33
2023-05-15T22:56:40.425Z,12.03
2023-05-15T22:59:45.491Z,12.07
2023-05-15T23:02:48.231Z,12.43
2023-05-15T23:05:53.127Z,12.50
2023-05-15T23:08:55.971Z,12.20
2023-05-15T23:11:58.648Z,11.63
2023-05-15T23:15:02.080Z,12.30
2023-05-15T23:18:05.521Z,11.20
2023-05-15T23:21:12.778Z,11.63
2023-05-15T23:24:16.143Z,11.80
2023-05-15T23:27:18.858Z,11.93
2023-05-15T23:30:21.925Z,11.77
2023-05-15T23:33:24.592Z,11.00
2023-05-15T23:36:28.624Z,11.13
2023-05-15T23:39:31.829Z,11.87
2023-05-15T23:42:34.636Z,11.90
2023-05-15T23:45:37.743Z,12.50
2023-05-15T23:48:40.578Z,12.83
2023-05-15T23:51:44.631Z,12.57
2023-05-15T23:54:47.507Z,12.63
2023-05-15T23:57:50.412Z,12.20
